createdAt,value
2022-12-27T00:03:22.666Z,6.43
2022-12-27T00:08:25.181Z,6.32
2022-12-27T00:13:27.804Z,6.15
2022-12-27T00:18:30.363Z,6.01
2022-12-27T00:34:45.653Z,6.06
2022-12-27T00:39:48.320Z,5.93
2022-12-27T00:44:50.999Z,5.79
2022-12-27T00:49:53.671Z,5.64
2022-12-27T00:54:56.311Z,5.56
2022-12-27T00:59:58.618Z,5.39
2022-12-27T01:05:01.523Z,5.33
2022-12-27T01:10:04.675Z,5.3
2022-12-27T01:15:07.313Z,5.18
2022-12-27T01:20:09.807Z,5.17
2022-12-27T01:25:12.419Z,5.11
2022-12-27T01:30:15.327Z,5.06
2022-12-27T01:35:18.126Z,5.02
2022-12-27T01:40:20.798Z,4.97
2022-12-27T01:50:26.025Z,4.86
2022-12-27T01:55:28.705Z,4.82
2022-12-27T02:00:31.418Z,4.84
2022-12-27T02:05:33.875Z,4.75
2022-12-27T02:10:36.744Z,4.65
2022-12-27T02:15:39.456Z,4.66
2022-12-27T02:20:42.201Z,4.55
2022-12-27T02:30:51.440Z,4.45
2022-12-27T02:35:54.690Z,4.48
2022-12-27T02:40:56.942Z,4.42
2022-12-27T02:45:59.755Z,4.29
2022-12-27T02:51:02.316Z,4.24
2022-12-27T03:01:07.994Z,4.29
2022-12-27T03:06:34.338Z,4.31
2022-12-27T03:11:37.447Z,4.4
2022-12-27T03:27:56.012Z,4.37
2022-12-27T03:32:58.644Z,4.35
2022-12-27T03:38:01.399Z,4.4
2022-12-27T03:43:04.096Z,4.39
2022-12-27T03:48:06.621Z,4.41
2022-12-27T03:53:09.519Z,4.4
2022-12-27T03:58:12.100Z,4.49
2022-12-27T04:03:14.871Z,4.45
2022-12-27T04:08:17.387Z,4.42
2022-12-27T04:13:20.009Z,4.49
2022-12-27T04:18:22.853Z,4.51
2022-12-27T04:28:27.861Z,4.51
2022-12-27T04:33:30.568Z,4.54
2022-12-27T04:38:33.579Z,4.55
2022-12-27T04:43:39.092Z,4.59
2022-12-27T04:48:41.701Z,4.58
2022-12-27T04:53:44.329Z,4.58
2022-12-27T04:58:47.540Z,4.6
2022-12-27T05:03:50.340Z,4.61
2022-12-27T05:18:59.632Z,4.55
2022-12-27T05:24:05.535Z,4.56
2022-12-27T05:29:04.760Z,4.68
2022-12-27T05:34:08.121Z,4.71
2022-12-27T05:39:10.599Z,4.88
2022-12-27T05:44:16.159Z,4.83
2022-12-27T05:49:18.897Z,4.85
2022-12-27T05:54:24.192Z,4.81
2022-12-27T05:59:26.869Z,4.75
2022-12-27T06:04:29.654Z,4.73
2022-12-27T06:09:32.203Z,4.63
2022-12-27T06:19:37.339Z,4.44
2022-12-27T06:24:40.944Z,4.46
2022-12-27T06:29:44.637Z,4.44
2022-12-27T06:34:47.090Z,4.41
2022-12-27T06:39:50.822Z,4.4
2022-12-27T06:44:53.779Z,4.62
2022-12-27T06:49:56.691Z,4.67
2022-12-27T06:54:59.761Z,4.69
2022-12-27T07:00:02.516Z,4.61
2022-12-27T07:05:05.121Z,4.52
2022-12-27T07:10:10.176Z,4.42
2022-12-27T07:15:12.811Z,4.61
2022-12-27T07:20:23.195Z,4.68
2022-12-27T07:25:25.886Z,4.73
2022-12-27T07:30:28.671Z,4.73
2022-12-27T07:35:31.639Z,4.75
2022-12-27T07:40:37.586Z,4.83
2022-12-27T07:45:40.508Z,4.88
2022-12-27T07:50:43.701Z,4.97
2022-12-27T07:55:46.254Z,5.03
2022-12-27T08:00:49.443Z,4.97
2022-12-27T08:05:53.762Z,5.07
2022-12-27T08:10:59.360Z,5.18
2022-12-27T08:16:01.403Z,5.16
2022-12-27T08:21:03.902Z,5.23
2022-12-27T08:26:06.478Z,5.23
2022-12-27T08:31:09.892Z,5.32
2022-12-27T08:41:15.049Z,5.49
2022-12-27T08:46:17.974Z,5.51
2022-12-27T08:51:26.531Z,5.56
2022-12-27T08:56:22.894Z,5.55
2022-12-27T09:06:28.383Z,5.56
2022-12-27T09:11:30.704Z,5.66
2022-12-27T09:16:33.401Z,5.78
2022-12-27T09:21:36.333Z,5.88
2022-12-27T09:26:38.694Z,5.92
2022-12-27T09:31:41.515Z,5.94
2022-12-27T09:36:43.924Z,6.07
2022-12-27T09:46:51.477Z,6.39
2022-12-27T09:51:54.317Z,6.72
2022-12-27T09:57:20.803Z,6.61
2022-12-27T10:02:00.304Z,7.03
2022-12-27T10:07:02.965Z,7.02
2022-12-27T10:12:05.540Z,6.98
2022-12-27T10:17:08.595Z,6.86
2022-12-27T10:22:11.211Z,6.74
2022-12-27T10:27:13.579Z,6.61
2022-12-27T10:32:16.402Z,6.84
2022-12-27T10:37:18.972Z,6.58
2022-12-27T10:42:21.509Z,6.74
2022-12-27T10:47:24.364Z,7.11
2022-12-27T10:52:27.050Z,7.2
2022-12-27T10:57:30.162Z,7.07
2022-12-27T11:07:35.741Z,7.01
2022-12-27T11:12:42.922Z,7.08
2022-12-27T11:17:45.808Z,6.96
2022-12-27T11:22:48.511Z,6.93
2022-12-27T11:27:51.070Z,7
2022-12-27T11:32:53.652Z,7
2022-12-27T11:37:56.596Z,7.08
2022-12-27T11:42:59.073Z,7.18
2022-12-27T11:48:01.691Z,7.24
2022-12-27T11:53:04.476Z,7.17
2022-12-27T11:58:07.266Z,7.19
2022-12-27T12:03:09.789Z,7.21
2022-12-27T12:08:12.701Z,7.25
2022-12-27T12:13:15.220Z,7.31
2022-12-27T12:18:18.149Z,7.34
2022-12-27T12:23:21.035Z,7.19
2022-12-27T12:28:56.129Z,7.02
2022-12-27T12:33:26.234Z,7.04
2022-12-27T12:38:29.020Z,7.03
2022-12-27T12:48:34.516Z,7.27
2022-12-27T12:53:37.116Z,7.42
2022-12-27T13:03:42.694Z,7.5
2022-12-27T13:08:45.434Z,7.5
2022-12-27T13:13:48.039Z,7.59
2022-12-27T13:18:50.544Z,7.45
2022-12-27T13:23:53.191Z,7.67
2022-12-27T13:28:55.989Z,7.67
2022-12-27T13:33:58.879Z,7.59
2022-12-27T13:44:07.783Z,7.34
2022-12-27T13:49:10.518Z,7.36
2022-12-27T13:54:12.951Z,7.34
2022-12-27T13:59:15.552Z,7.19
2022-12-27T14:04:18.138Z,7.08
2022-12-27T14:09:26.442Z,7.06
2022-12-27T14:14:29.307Z,7.03
2022-12-27T14:19:31.984Z,6.99
2022-12-27T14:24:37.490Z,6.92
2022-12-27T14:29:40.152Z,6.86
2022-12-27T14:34:43.149Z,6.78
2022-12-27T14:39:45.507Z,6.83
2022-12-27T14:44:47.843Z,6.74
2022-12-27T14:49:50.594Z,6.58
2022-12-27T14:54:53.461Z,6.45
2022-12-27T15:10:01.833Z,6.3
2022-12-27T15:15:04.339Z,6.31
2022-12-27T15:20:06.939Z,6.36
2022-12-27T15:25:09.632Z,6.25
2022-12-27T15:30:12.072Z,6.07
2022-12-27T15:35:17.682Z,6.01
2022-12-27T15:40:20.500Z,5.81
2022-12-27T15:45:23.002Z,5.69
2022-12-27T15:50:25.888Z,5.55
2022-12-27T15:55:28.469Z,5.47
2022-12-27T16:00:33.775Z,5.36
2022-12-27T16:05:33.618Z,5.29
2022-12-27T16:10:36.127Z,5.27
2022-12-27T16:15:38.890Z,5.12
2022-12-27T16:20:41.288Z,5.09
2022-12-27T16:25:44.059Z,5.14
2022-12-27T16:30:46.761Z,5.13
2022-12-27T16:35:49.431Z,5.11
2022-12-27T16:40:51.790Z,5.09
2022-12-27T16:50:57.294Z,5.02
2022-12-27T17:01:02.724Z,4.95
2022-12-27T17:06:31.073Z,4.92
2022-12-27T17:11:09.389Z,4.92
2022-12-27T17:16:11.838Z,4.88
2022-12-27T17:21:14.723Z,4.81
2022-12-27T17:26:17.507Z,4.7
2022-12-27T17:31:20.354Z,4.7
2022-12-27T17:36:23.383Z,4.62
2022-12-27T17:41:26.162Z,4.58
2022-12-27T17:46:28.816Z,4.52
2022-12-27T17:51:31.595Z,4.52
2022-12-27T17:56:34.087Z,4.44
2022-12-27T18:01:36.769Z,4.38
2022-12-27T18:11:42.291Z,4.37
2022-12-27T18:16:45.089Z,4.36
2022-12-27T18:21:47.806Z,4.31
2022-12-27T18:26:50.514Z,4.35
2022-12-27T18:31:53.633Z,4.3
2022-12-27T18:36:56.077Z,4.28
2022-12-27T18:41:58.802Z,4.28
2022-12-27T18:47:01.241Z,4.28
2022-12-27T18:52:03.684Z,4.13
2022-12-27T18:57:06.284Z,4.19
2022-12-27T19:02:09.000Z,4.22
2022-12-27T19:07:11.546Z,4.26
2022-12-27T19:12:14.253Z,4.25
2022-12-27T19:17:16.702Z,4.22
2022-12-27T19:22:19.382Z,4.05
2022-12-27T19:27:21.856Z,3.92
2022-12-27T19:32:24.887Z,3.89
2022-12-27T19:37:27.900Z,3.71
2022-12-27T19:42:30.879Z,3.74
2022-12-27T19:47:33.472Z,3.63
2022-12-27T19:52:36.044Z,3.64
2022-12-27T19:57:38.543Z,3.53
2022-12-27T20:02:41.070Z,3.53
2022-12-27T20:07:43.595Z,3.6
2022-12-27T20:12:46.404Z,3.82
2022-12-27T20:17:49.225Z,4.01
2022-12-27T20:22:51.511Z,4.18
2022-12-27T20:27:54.852Z,4.22
2022-12-27T20:32:57.576Z,4.31
2022-12-27T20:38:00.482Z,4.49
2022-12-27T20:43:02.971Z,4.56
2022-12-27T20:48:05.651Z,4.71
2022-12-27T20:58:13.896Z,4.81
2022-12-27T21:03:21.233Z,4.76
2022-12-27T21:08:24.057Z,4.77
2022-12-27T21:13:26.698Z,4.74
2022-12-27T21:23:31.972Z,4.76
2022-12-27T21:28:34.897Z,4.77
2022-12-27T21:33:37.703Z,4.78
2022-12-27T21:38:40.285Z,4.79
2022-12-27T21:43:42.958Z,4.81
2022-12-27T21:48:45.578Z,4.82
2022-12-27T21:53:48.312Z,4.89
2022-12-27T21:58:51.384Z,4.92
2022-12-27T22:03:54.281Z,5.05
2022-12-27T22:08:57.492Z,5.04
2022-12-27T22:14:00.425Z,4.94
2022-12-27T22:19:03.091Z,4.87
2022-12-27T22:29:08.328Z,4.71
2022-12-27T22:34:11.030Z,4.63
2022-12-27T22:39:13.565Z,4.48
2022-12-27T22:49:19.347Z,4.34
2022-12-27T22:55:02.840Z,4.3
2022-12-27T22:59:24.755Z,4.33
2022-12-27T23:04:27.495Z,4.3
2022-12-27T23:15:33.193Z,4.57
2022-12-27T23:20:36.146Z,4.63
2022-12-27T23:25:38.887Z,4.69
2022-12-27T23:35:50.229Z,5
2022-12-27T23:40:52.891Z,5.07
2022-12-27T23:45:55.581Z,5.13
2022-12-27T23:50:58.450Z,5.2
2022-12-27T23:56:01.207Z,5.28
